Andre-b — PHON — position and weather

sailwx.info

Track history (hours):
 
Tides and Currents Weather Stations Pressure Air Temp Water Temp Dewpoint Dewpoint Depression Visibility Wind Speed Wind Dir Waves Ship Positions

Andre-b

Last reported at 2017-Nov-16 06:56 UTC. Time now 2017-Nov-23 09:43 UTC.
Position N 54°41' W 001°04'.

Length 31 m; draft 4 m.

Type: Tug. MMSI: 245188000.

Date/timePositionNaut miles runAvg speedWind from/ knotsBaromVisibWave heightAir tempDewpointWater temp
2017-Nov-16 06:56N 54°41' W 001°04'1 1.4
2017-Nov-16 06:19N 54°40' W 001°05'23 3.8
2017-Nov-16 00:08N 54°29' W 000°29'1 4.2
2017-Nov-16 00:00N 54°28' W 000°29'2 4.4
2017-Nov-15 23:31N 54°27' W 000°26'2 4.7
2017-Nov-15 23:01N 54°25' W 000°24'3 5.0
2017-Nov-15 22:30N 54°23' W 000°21'3 5.4
2017-Nov-15 22:01N 54°21' W 000°19'3 5.6
2017-Nov-15 21:30N 54°18' W 000°16'3 5.7
2017-Nov-15 21:01N 54°16' W 000°12'3 6.0
2017-Nov-15 20:31N 54°14' W 000°09'3 6.2
2017-Nov-15 20:01N 54°11' W 000°06'3 6.8
2017-Nov-15 19:31N 54°09' W 000°02'3 6.6
2017-Nov-15 19:00N 54°06' E 000°00'3 6.1
2017-Nov-15 18:31N 54°03' E 000°03'3 5.7
2017-Nov-15 18:00N 54°01' E 000°05'3 5.3
2017-Nov-15 17:22N 53°57' E 000°07'2 5.0
2017-Nov-15 17:00N 53°56' E 000°08'3 4.6
2017-Nov-15 16:24N 53°53' E 000°10'2 4.9
2017-Nov-15 15:57N 53°51' E 000°12'3 3.8
2017-Nov-15 15:15N 53°49' E 000°15'1 3.5
2017-Nov-15 15:00N 53°49' E 000°16'3 3.1
2017-Nov-15 13:53N 53°46' E 000°20'2 3.0
2017-Nov-15 13:19N 53°45' E 000°22'1 3.0
2017-Nov-15 12:56N 53°44' E 000°24'39 4.3
2017-Nov-15 03:56N 53°15' E 001°07'2 3.2
2017-Nov-15 03:27N 53°14' E 001°09'2 3.3
2017-Nov-15 02:58N 53°13' E 001°11'2 3.6
2017-Nov-15 02:30N 53°12' E 001°13'2 4.1
2017-Nov-15 01:59N 53°10' E 001°15'2 4.6
2017-Nov-15 01:30N 53°08' E 001°17'2 5.1
2017-Nov-15 01:00N 53°06' E 001°19'3 5.6
2017-Nov-15 00:30N 53°04' E 001°22'3 6.3
2017-Nov-15 00:00N 53°01' E 001°25'3 6.8
2017-Nov-14 23:31N 52°59' E 001°28'4 7.2
2017-Nov-14 23:00N 52°56' E 001°32'4 7.3
2017-Nov-14 22:31N 52°53' E 001°35'4 7.1
2017-Nov-14 22:01N 52°50' E 001°38'3 6.9
2017-Nov-14 21:30N 52°47' E 001°42'3 6.5
2017-Nov-14 21:00N 52°44' E 001°44'3 5.9
2017-Nov-14 20:31N 52°41' E 001°46'3 5.5
2017-Nov-14 19:59N 52°39' E 001°46'2 4.6
2017-Nov-14 19:30N 52°36' E 001°46'2 4.3
2017-Nov-14 19:01N 52°34' E 001°45'1 1.3
2017-Nov-14 18:31N 52°34' E 001°44'1 1.1
2017-Nov-14 18:00N 52°35' E 001°44'0 0.0
2017-Nov-14 17:31N 52°35' E 001°44'0 0.0
2017-Nov-14 17:01N 52°35' E 001°44'0 0.0
2017-Nov-14 16:31N 52°35' E 001°44'0 0.0
2017-Nov-14 16:00N 52°35' E 001°44'0 0.0
2017-Nov-14 15:30N 52°35' E 001°44'0 0.0
2017-Nov-14 15:00N 52°35' E 001°44'0 0.0
2017-Nov-14 14:30N 52°35' E 001°44'0 0.0
2017-Nov-14 14:01N 52°35' E 001°44'0 0.0
2017-Nov-14 13:30N 52°35' E 001°44'0 0.0
2017-Nov-14 13:00N 52°35' E 001°44'0 0.0
2017-Nov-14 12:31N 52°35' E 001°44'0 0.0
2017-Nov-14 12:01N 52°35' E 001°44'0 0.0
2017-Nov-14 11:31N 52°35' E 001°44'0 0.0
2017-Nov-14 11:00N 52°35' E 001°44'0 0.0
2017-Nov-14 10:30N 52°35' E 001°44'0 0.0
2017-Nov-14 10:00N 52°35' E 001°44'0 0.0
2017-Nov-14 09:30N 52°35' E 001°44'0 0.0
2017-Nov-14 09:00N 52°35' E 001°44'0 0.0
2017-Nov-14 08:30N 52°35' E 001°44'0 0.0
2017-Nov-14 08:01N 52°35' E 001°44'0 0.0
2017-Nov-14 07:30N 52°35' E 001°44'0 0.0
2017-Nov-14 06:45N 52°35' E 001°44'0 0.0
2017-Nov-14 06:31N 52°35' E 001°44'0 0.0
2017-Nov-14 06:00N 52°35' E 001°44'0 0.0
2017-Nov-14 05:31N 52°35' E 001°44'0 0.0
2017-Nov-14 05:00N 52°35' E 001°44'0 0.0
2017-Nov-14 04:30N 52°35' E 001°44'0 0.0
2017-Nov-14 04:01N 52°35' E 001°44'0 0.0
2017-Nov-14 03:30N 52°35' E 001°44'0 0.0
2017-Nov-14 03:00N 52°35' E 001°44'0 0.0
2017-Nov-14 02:30N 52°35' E 001°44'0 0.0
2017-Nov-14 02:00N 52°35' E 001°44'0 0.0
2017-Nov-14 01:31N 52°35' E 001°44'0 0.0
2017-Nov-14 01:00N 52°35' E 001°44'0 0.0
2017-Nov-14 00:31N 52°35' E 001°44'0 0.0
2017-Nov-14 00:01N 52°35' E 001°44'0 0.0
2017-Nov-13 23:31N 52°35' E 001°44'0 0.0
2017-Nov-13 22:59N 52°35' E 001°44'0 0.0
2017-Nov-13 22:30N 52°35' E 001°44'0 0.0
2017-Nov-13 22:00N 52°35' E 001°44'0 0.0
2017-Nov-13 02:01N 52°35' E 001°44'0 0.0
2017-Nov-13 01:30N 52°35' E 001°44'0 0.0
2017-Nov-13 01:00N 52°35' E 001°44'0 0.0
2017-Nov-13 00:30N 52°35' E 001°44'0 0.0
2017-Nov-13 00:00N 52°35' E 001°44'0 0.0
2017-Nov-12 23:31N 52°35' E 001°44'0 0.0
2017-Nov-12 23:00N 52°35' E 001°44'0 0.0
2017-Nov-12 22:30N 52°35' E 001°44'0 0.0
2017-Nov-12 22:01N 52°35' E 001°44'0 0.0
2017-Nov-12 21:31N 52°35' E 001°44'0 0.0
2017-Nov-12 21:01N 52°35' E 001°44'0 0.0
2017-Nov-12 20:30N 52°35' E 001°44'0 0.0
2017-Nov-12 20:01N 52°35' E 001°44'0 0.0
2017-Nov-12 19:31N 52°35' E 001°44'0 0.0
2017-Nov-12 19:00N 52°35' E 001°44'0 0.0
2017-Nov-12 18:30N 52°35' E 001°44'0 0.0
2017-Nov-12 18:00N 52°35' E 001°44'0 0.0
2017-Nov-12 17:30N 52°35' E 001°44'0 0.0
2017-Nov-12 17:00N 52°35' E 001°44'0 0.0
2017-Nov-12 16:31N 52°35' E 001°44'0 0.0
2017-Nov-12 16:00N 52°35' E 001°44'0 0.0
2017-Nov-12 15:30N 52°35' E 001°44'0 0.0
2017-Nov-12 15:00N 52°35' E 001°44'0 0.0
2017-Nov-12 14:30N 52°35' E 001°44'0 0.0
2017-Nov-12 14:01N 52°35' E 001°44'0 0.0
2017-Nov-12 13:30N 52°35' E 001°44'0 0.0
2017-Nov-12 13:01N 52°35' E 001°44'0 0.0
2017-Nov-12 12:31N 52°35' E 001°44'0 0.0
2017-Nov-12 12:00N 52°35' E 001°44'0 0.0
2017-Nov-12 11:31N 52°35' E 001°44'0 0.0
2017-Nov-12 11:01N 52°35' E 001°44'0 0.0
2017-Nov-12 10:31N 52°35' E 001°44'0 0.0
2017-Nov-12 10:00N 52°35' E 001°44'0 0.0
2017-Nov-12 09:31N 52°35' E 001°44'0 0.0
2017-Nov-12 09:01N 52°35' E 001°44'0 0.0
2017-Nov-12 08:30N 52°35' E 001°44'0 0.0
2017-Nov-12 08:01N 52°35' E 001°44'0 0.0
2017-Nov-12 07:31N 52°35' E 001°44'0 0.0
2017-Nov-12 07:00N 52°35' E 001°44'0 0.0
2017-Nov-12 06:30N 52°35' E 001°44'0 0.0
2017-Nov-12 06:01N 52°35' E 001°44'0 0.0
2017-Nov-12 05:31N 52°35' E 001°44'0 0.0
2017-Nov-12 05:00N 52°35' E 001°44'0 0.0
2017-Nov-12 04:31N 52°35' E 001°44'0 0.0
2017-Nov-12 04:00N 52°35' E 001°44'0 0.0
2017-Nov-12 03:31N 52°35' E 001°44'0 0.0
2017-Nov-12 03:00N 52°35' E 001°44'0 0.0
2017-Nov-12 02:30N 52°35' E 001°44'0 0.0
2017-Nov-12 02:00N 52°35' E 001°44'0 0.0
2017-Nov-12 01:31N 52°35' E 001°44'0 0.0
2017-Nov-12 01:01N 52°35' E 001°44'0 0.0
2017-Nov-12 00:30N 52°35' E 001°44'0 0.0
2017-Nov-12 00:00N 52°35' E 001°44'0 0.0
2017-Nov-11 23:30N 52°35' E 001°44'0 0.0
2017-Nov-11 23:00N 52°35' E 001°44'0 0.0
2017-Nov-11 22:30N 52°35' E 001°44'0 0.0
2017-Nov-11 22:01N 52°35' E 001°44'0 0.1
2017-Nov-11 21:30N 52°35' E 001°44'0 0.1
2017-Nov-11 21:00N 52°35' E 001°44'0 0.0
2017-Nov-11 20:31N 52°35' E 001°44'0 0.0
2017-Nov-11 20:01N 52°35' E 001°44'0 0.0
2017-Nov-11 19:31N 52°35' E 001°44'0 0.0
2017-Nov-11 19:01N 52°35' E 001°44'0 0.0
2017-Nov-11 18:31N 52°35' E 001°44'0 0.0
2017-Nov-11 18:00N 52°35' E 001°44'0 0.0
2017-Nov-11 17:30N 52°35' E 001°44'0 0.0
2017-Nov-11 17:00N 52°35' E 001°44'0 0.0
2017-Nov-11 16:30N 52°35' E 001°44'0 0.0
2017-Nov-11 16:00N 52°35' E 001°44'0 0.0
2017-Nov-11 15:30N 52°35' E 001°44'0 0.0
2017-Nov-11 15:00N 52°35' E 001°44'0 0.0
2017-Nov-11 14:31N 52°35' E 001°44'0 0.0
2017-Nov-11 14:01N 52°35' E 001°44'0 0.0
2017-Nov-11 13:30N 52°35' E 001°44'0 0.0
2017-Nov-11 13:00N 52°35' E 001°44'0 0.0
2017-Nov-11 12:30N 52°35' E 001°44'0 0.0
2017-Nov-11 12:00N 52°35' E 001°44'0 0.0
2017-Nov-11 11:30N 52°35' E 001°44'0 0.0
2017-Nov-11 11:00N 52°35' E 001°44'0 0.0
2017-Nov-11 10:31N 52°35' E 001°44'0 0.0
2017-Nov-11 10:00N 52°35' E 001°44'0 0.0
2017-Nov-11 09:30N 52°35' E 001°44'0 0.0
2017-Nov-11 09:01N 52°35' E 001°44'0 0.0
2017-Nov-11 08:30N 52°35' E 001°44'0 0.0
2017-Nov-11 08:00N 52°35' E 001°44'0 0.0
2017-Nov-11 07:31N 52°35' E 001°44'0 0.0
2017-Nov-11 07:01N 52°35' E 001°44'0 0.0
2017-Nov-11 06:30N 52°35' E 001°44'0 0.0
2017-Nov-11 06:01N 52°35' E 001°44'0 0.0
2017-Nov-11 05:30N 52°35' E 001°44'0 0.0
2017-Nov-11 05:01N 52°35' E 001°44'0 0.0
2017-Nov-11 04:30N 52°35' E 001°44'0 0.0
2017-Nov-11 04:01N 52°35' E 001°44'0 0.0
2017-Nov-11 03:31N 52°35' E 001°44'0 0.0
2017-Nov-11 03:01N 52°35' E 001°44'0 0.0
2017-Nov-11 02:31N 52°35' E 001°44'0 0.0
2017-Nov-11 02:01N 52°35' E 001°44'0 0.0
2017-Nov-11 01:31N 52°35' E 001°44'0 0.0
2017-Nov-11 01:01N 52°35' E 001°44'0 0.0
2017-Nov-11 00:31N 52°35' E 001°44'0 0.0
2017-Nov-11 00:00N 52°35' E 001°44'0 0.0
2017-Nov-10 23:30N 52°35' E 001°44'0 0.0
2017-Nov-10 23:00N 52°35' E 001°44'0 0.0
2017-Nov-10 22:30N 52°35' E 001°44'0 0.0
2017-Nov-10 22:01N 52°35' E 001°44'0 0.0
2017-Nov-10 21:31N 52°35' E 001°44'0 0.0
2017-Nov-10 21:00N 52°35' E 001°44'0 0.0
2017-Nov-10 20:31N 52°35' E 001°44'0 0.0
2017-Nov-10 20:01N 52°35' E 001°44'0 0.0
2017-Nov-10 19:30N 52°35' E 001°44'0 0.0
2017-Nov-10 19:00N 52°35' E 001°44'0 0.0
2017-Nov-10 18:30N 52°35' E 001°44'0 0.0
2017-Nov-10 18:00N 52°35' E 001°44'0 0.0
2017-Nov-10 17:31N 52°35' E 001°44'0 0.0
2017-Nov-10 17:01N 52°35' E 001°44'0 0.2
2017-Nov-10 16:30N 52°35' E 001°44'0 0.2
2017-Nov-10 16:00N 52°35' E 001°44'0 0.0
2017-Nov-10 15:30N 52°35' E 001°44'0 0.0
2017-Nov-10 15:00N 52°35' E 001°44'0 0.0
2017-Nov-10 14:30N 52°35' E 001°44'0 0.0
2017-Nov-10 14:00N 52°35' E 001°44'0 0.0
2017-Nov-10 13:30N 52°35' E 001°44'0 0.0
2017-Nov-10 13:00N 52°35' E 001°44'0 0.0
2017-Nov-10 12:30N 52°35' E 001°44'0 0.0
2017-Nov-10 12:00N 52°35' E 001°44'0 0.0
2017-Nov-10 11:30N 52°35' E 001°44'0 0.0
2017-Nov-10 11:00N 52°35' E 001°44'0 0.0
2017-Nov-10 10:30N 52°35' E 001°44'0 0.0
2017-Nov-10 10:00N 52°35' E 001°44'0 0.0
2017-Nov-10 09:30N 52°35' E 001°44'0 0.0
2017-Nov-10 09:00N 52°35' E 001°44'0 0.0
2017-Nov-10 08:30N 52°35' E 001°44'1 1.4
2017-Nov-10 08:00N 52°34' E 001°45'1 2.3
2017-Nov-10 07:31N 52°34' E 001°46'1 1.4
2017-Nov-10 07:00N 52°33' E 001°47'2 4.0
2017-Nov-10 06:30N 52°32' E 001°50'2 4.3
2017-Nov-10 05:59N 52°30' E 001°52'2 4.6
2017-Nov-10 05:30N 52°28' E 001°52'2 4.6
2017-Nov-10 05:00N 52°26' E 001°52'2 4.8
2017-Nov-10 04:30N 52°24' E 001°50'3 4.7
2017-Nov-10 03:58N 52°21' E 001°49'10 5.1
2017-Nov-10 02:01N 52°12' E 001°44'0 1.2
2017-Nov-10 02:00N 52°12' E 001°44'3 5.3
2017-Nov-10 01:30N 52°09' E 001°43'2 4.9
2017-Nov-10 01:00N 52°07' E 001°42'2 4.2
2017-Nov-10 00:30N 52°05' E 001°41'2 4.3
2017-Nov-10 00:00N 52°03' E 001°40'2 4.1
2017-Nov-09 23:30N 52°01' E 001°40'2 4.6
2017-Nov-09 23:00N 51°59' E 001°39'3 5.0
2017-Nov-09 22:30N 51°56' E 001°38'3 5.5
2017-Nov-09 22:00N 51°53' E 001°37'3 6.2
2017-Nov-09 21:30N 51°51' E 001°36'4 7.0
2017-Nov-09 21:00N 51°48' E 001°32'4 7.7
2017-Nov-09 20:30N 51°45' E 001°27'4 7.7
2017-Nov-09 20:00N 51°43' E 001°23'4 8.3
2017-Nov-09 19:30N 51°40' E 001°17'4 8.8
2017-Nov-09 19:00N 51°36' E 001°13'5 8.9
2017-Nov-09 18:29N 51°34' E 001°07'4 8.5
2017-Nov-09 17:58N 51°31' E 001°01'4 8.3
2017-Nov-09 17:30N 51°30' E 000°55'2 4.9
2017-Nov-09 17:00N 51°30' E 000°51'  
Track history (hours):
 
Tides and Currents Weather Stations Pressure Air Temp Water Temp Dewpoint Dewpoint Depression Visibility Wind Speed Wind Dir Waves Ship Positions

Andre-b

Last reported at 2017-Nov-16 06:56 UTC. Time now 2017-Nov-23 09:43 UTC.
Position N 54°41' W 001°04'.

Length 31 m; draft 4 m.

Type: Tug. MMSI: 245188000.

Date/timePositionNaut miles runAvg speedWind from/ knotsBaromVisibWave heightAir tempDewpointWater temp
2017-Nov-16 06:56N 54°41' W 001°04'1 1.4
2017-Nov-16 06:19N 54°40' W 001°05'23 3.8
2017-Nov-16 00:08N 54°29' W 000°29'1 4.2
2017-Nov-16 00:00N 54°28' W 000°29'2 4.4
2017-Nov-15 23:31N 54°27' W 000°26'2 4.7
2017-Nov-15 23:01N 54°25' W 000°24'3 5.0
2017-Nov-15 22:30N 54°23' W 000°21'3 5.4
2017-Nov-15 22:01N 54°21' W 000°19'3 5.6
2017-Nov-15 21:30N 54°18' W 000°16'3 5.7
2017-Nov-15 21:01N 54°16' W 000°12'3 6.0
2017-Nov-15 20:31N 54°14' W 000°09'3 6.2
2017-Nov-15 20:01N 54°11' W 000°06'3 6.8
2017-Nov-15 19:31N 54°09' W 000°02'3 6.6
2017-Nov-15 19:00N 54°06' E 000°00'3 6.1
2017-Nov-15 18:31N 54°03' E 000°03'3 5.7
2017-Nov-15 18:00N 54°01' E 000°05'3 5.3
2017-Nov-15 17:22N 53°57' E 000°07'2 5.0
2017-Nov-15 17:00N 53°56' E 000°08'3 4.6
2017-Nov-15 16:24N 53°53' E 000°10'2 4.9
2017-Nov-15 15:57N 53°51' E 000°12'3 3.8
2017-Nov-15 15:15N 53°49' E 000°15'1 3.5
2017-Nov-15 15:00N 53°49' E 000°16'3 3.1
2017-Nov-15 13:53N 53°46' E 000°20'2 3.0
2017-Nov-15 13:19N 53°45' E 000°22'1 3.0
2017-Nov-15 12:56N 53°44' E 000°24'39 4.3
2017-Nov-15 03:56N 53°15' E 001°07'2 3.2
2017-Nov-15 03:27N 53°14' E 001°09'2 3.3
2017-Nov-15 02:58N 53°13' E 001°11'2 3.6
2017-Nov-15 02:30N 53°12' E 001°13'2 4.1
2017-Nov-15 01:59N 53°10' E 001°15'2 4.6
2017-Nov-15 01:30N 53°08' E 001°17'2 5.1
2017-Nov-15 01:00N 53°06' E 001°19'3 5.6
2017-Nov-15 00:30N 53°04' E 001°22'3 6.3
2017-Nov-15 00:00N 53°01' E 001°25'3 6.8
2017-Nov-14 23:31N 52°59' E 001°28'4 7.2
2017-Nov-14 23:00N 52°56' E 001°32'4 7.3
2017-Nov-14 22:31N 52°53' E 001°35'4 7.1
2017-Nov-14 22:01N 52°50' E 001°38'3 6.9
2017-Nov-14 21:30N 52°47' E 001°42'3 6.5
2017-Nov-14 21:00N 52°44' E 001°44'3 5.9
2017-Nov-14 20:31N 52°41' E 001°46'3 5.5
2017-Nov-14 19:59N 52°39' E 001°46'2 4.6
2017-Nov-14 19:30N 52°36' E 001°46'2 4.3
2017-Nov-14 19:01N 52°34' E 001°45'1 1.3
2017-Nov-14 18:31N 52°34' E 001°44'1 1.1
2017-Nov-14 18:00N 52°35' E 001°44'0 0.0
2017-Nov-14 17:31N 52°35' E 001°44'0 0.0
2017-Nov-14 17:01N 52°35' E 001°44'0 0.0
2017-Nov-14 16:31N 52°35' E 001°44'0 0.0
2017-Nov-14 16:00N 52°35' E 001°44'0 0.0
2017-Nov-14 15:30N 52°35' E 001°44'0 0.0
2017-Nov-14 15:00N 52°35' E 001°44'0 0.0
2017-Nov-14 14:30N 52°35' E 001°44'0 0.0
2017-Nov-14 14:01N 52°35' E 001°44'0 0.0
2017-Nov-14 13:30N 52°35' E 001°44'0 0.0
2017-Nov-14 13:00N 52°35' E 001°44'0 0.0
2017-Nov-14 12:31N 52°35' E 001°44'0 0.0
2017-Nov-14 12:01N 52°35' E 001°44'0 0.0
2017-Nov-14 11:31N 52°35' E 001°44'0 0.0
2017-Nov-14 11:00N 52°35' E 001°44'0 0.0
2017-Nov-14 10:30N 52°35' E 001°44'0 0.0
2017-Nov-14 10:00N 52°35' E 001°44'0 0.0
2017-Nov-14 09:30N 52°35' E 001°44'0 0.0
2017-Nov-14 09:00N 52°35' E 001°44'0 0.0
2017-Nov-14 08:30N 52°35' E 001°44'0 0.0
2017-Nov-14 08:01N 52°35' E 001°44'0 0.0
2017-Nov-14 07:30N 52°35' E 001°44'0 0.0
2017-Nov-14 06:45N 52°35' E 001°44'0 0.0
2017-Nov-14 06:31N 52°35' E 001°44'0 0.0
2017-Nov-14 06:00N 52°35' E 001°44'0 0.0
2017-Nov-14 05:31N 52°35' E 001°44'0 0.0
2017-Nov-14 05:00N 52°35' E 001°44'0 0.0
2017-Nov-14 04:30N 52°35' E 001°44'0 0.0
2017-Nov-14 04:01N 52°35' E 001°44'0 0.0
2017-Nov-14 03:30N 52°35' E 001°44'0 0.0
2017-Nov-14 03:00N 52°35' E 001°44'0 0.0
2017-Nov-14 02:30N 52°35' E 001°44'0 0.0
2017-Nov-14 02:00N 52°35' E 001°44'0 0.0
2017-Nov-14 01:31N 52°35' E 001°44'0 0.0
2017-Nov-14 01:00N 52°35' E 001°44'0 0.0
2017-Nov-14 00:31N 52°35' E 001°44'0 0.0
2017-Nov-14 00:01N 52°35' E 001°44'0 0.0
2017-Nov-13 23:31N 52°35' E 001°44'0 0.0
2017-Nov-13 22:59N 52°35' E 001°44'0 0.0
2017-Nov-13 22:30N 52°35' E 001°44'0 0.0
2017-Nov-13 22:00N 52°35' E 001°44'0 0.0
2017-Nov-13 02:01N 52°35' E 001°44'0 0.0
2017-Nov-13 01:30N 52°35' E 001°44'0 0.0
2017-Nov-13 01:00N 52°35' E 001°44'0 0.0
2017-Nov-13 00:30N 52°35' E 001°44'0 0.0
2017-Nov-13 00:00N 52°35' E 001°44'0 0.0
2017-Nov-12 23:31N 52°35' E 001°44'0 0.0
2017-Nov-12 23:00N 52°35' E 001°44'0 0.0
2017-Nov-12 22:30N 52°35' E 001°44'0 0.0
2017-Nov-12 22:01N 52°35' E 001°44'0 0.0
2017-Nov-12 21:31N 52°35' E 001°44'0 0.0
2017-Nov-12 21:01N 52°35' E 001°44'0 0.0
2017-Nov-12 20:30N 52°35' E 001°44'0 0.0
2017-Nov-12 20:01N 52°35' E 001°44'0 0.0
2017-Nov-12 19:31N 52°35' E 001°44'0 0.0
2017-Nov-12 19:00N 52°35' E 001°44'0 0.0
2017-Nov-12 18:30N 52°35' E 001°44'0 0.0
2017-Nov-12 18:00N 52°35' E 001°44'0 0.0
2017-Nov-12 17:30N 52°35' E 001°44'0 0.0
2017-Nov-12 17:00N 52°35' E 001°44'0 0.0
2017-Nov-12 16:31N 52°35' E 001°44'0 0.0
2017-Nov-12 16:00N 52°35' E 001°44'0 0.0
2017-Nov-12 15:30N 52°35' E 001°44'0 0.0
2017-Nov-12 15:00N 52°35' E 001°44'0 0.0
2017-Nov-12 14:30N 52°35' E 001°44'0 0.0
2017-Nov-12 14:01N 52°35' E 001°44'0 0.0
2017-Nov-12 13:30N 52°35' E 001°44'0 0.0
2017-Nov-12 13:01N 52°35' E 001°44'0 0.0
2017-Nov-12 12:31N 52°35' E 001°44'0 0.0
2017-Nov-12 12:00N 52°35' E 001°44'0 0.0
2017-Nov-12 11:31N 52°35' E 001°44'0 0.0
2017-Nov-12 11:01N 52°35' E 001°44'0 0.0
2017-Nov-12 10:31N 52°35' E 001°44'0 0.0
2017-Nov-12 10:00N 52°35' E 001°44'0 0.0
2017-Nov-12 09:31N 52°35' E 001°44'0 0.0
2017-Nov-12 09:01N 52°35' E 001°44'0 0.0
2017-Nov-12 08:30N 52°35' E 001°44'0 0.0
2017-Nov-12 08:01N 52°35' E 001°44'0 0.0
2017-Nov-12 07:31N 52°35' E 001°44'0 0.0
2017-Nov-12 07:00N 52°35' E 001°44'0 0.0
2017-Nov-12 06:30N 52°35' E 001°44'0 0.0
2017-Nov-12 06:01N 52°35' E 001°44'0 0.0
2017-Nov-12 05:31N 52°35' E 001°44'0 0.0
2017-Nov-12 05:00N 52°35' E 001°44'0 0.0
2017-Nov-12 04:31N 52°35' E 001°44'0 0.0
2017-Nov-12 04:00N 52°35' E 001°44'0 0.0
2017-Nov-12 03:31N 52°35' E 001°44'0 0.0
2017-Nov-12 03:00N 52°35' E 001°44'0 0.0
2017-Nov-12 02:30N 52°35' E 001°44'0 0.0
2017-Nov-12 02:00N 52°35' E 001°44'0 0.0
2017-Nov-12 01:31N 52°35' E 001°44'0 0.0
2017-Nov-12 01:01N 52°35' E 001°44'0 0.0
2017-Nov-12 00:30N 52°35' E 001°44'0 0.0
2017-Nov-12 00:00N 52°35' E 001°44'0 0.0
2017-Nov-11 23:30N 52°35' E 001°44'0 0.0
2017-Nov-11 23:00N 52°35' E 001°44'0 0.0
2017-Nov-11 22:30N 52°35' E 001°44'0 0.0
2017-Nov-11 22:01N 52°35' E 001°44'0 0.1
2017-Nov-11 21:30N 52°35' E 001°44'0 0.1
2017-Nov-11 21:00N 52°35' E 001°44'0 0.0
2017-Nov-11 20:31N 52°35' E 001°44'0 0.0
2017-Nov-11 20:01N 52°35' E 001°44'0 0.0
2017-Nov-11 19:31N 52°35' E 001°44'0 0.0
2017-Nov-11 19:01N 52°35' E 001°44'0 0.0
2017-Nov-11 18:31N 52°35' E 001°44'0 0.0
2017-Nov-11 18:00N 52°35' E 001°44'0 0.0
2017-Nov-11 17:30N 52°35' E 001°44'0 0.0
2017-Nov-11 17:00N 52°35' E 001°44'0 0.0
2017-Nov-11 16:30N 52°35' E 001°44'0 0.0
2017-Nov-11 16:00N 52°35' E 001°44'0 0.0
2017-Nov-11 15:30N 52°35' E 001°44'0 0.0
2017-Nov-11 15:00N 52°35' E 001°44'0 0.0
2017-Nov-11 14:31N 52°35' E 001°44'0 0.0
2017-Nov-11 14:01N 52°35' E 001°44'0 0.0
2017-Nov-11 13:30N 52°35' E 001°44'0 0.0
2017-Nov-11 13:00N 52°35' E 001°44'0 0.0
2017-Nov-11 12:30N 52°35' E 001°44'0 0.0
2017-Nov-11 12:00N 52°35' E 001°44'0 0.0
2017-Nov-11 11:30N 52°35' E 001°44'0 0.0
2017-Nov-11 11:00N 52°35' E 001°44'0 0.0
2017-Nov-11 10:31N 52°35' E 001°44'0 0.0
2017-Nov-11 10:00N 52°35' E 001°44'0 0.0
2017-Nov-11 09:30N 52°35' E 001°44'0 0.0
2017-Nov-11 09:01N 52°35' E 001°44'0 0.0
2017-Nov-11 08:30N 52°35' E 001°44'0 0.0
2017-Nov-11 08:00N 52°35' E 001°44'0 0.0
2017-Nov-11 07:31N 52°35' E 001°44'0 0.0
2017-Nov-11 07:01N 52°35' E 001°44'0 0.0
2017-Nov-11 06:30N 52°35' E 001°44'0 0.0
2017-Nov-11 06:01N 52°35' E 001°44'0 0.0
2017-Nov-11 05:30N 52°35' E 001°44'0 0.0
2017-Nov-11 05:01N 52°35' E 001°44'0 0.0
2017-Nov-11 04:30N 52°35' E 001°44'0 0.0
2017-Nov-11 04:01N 52°35' E 001°44'0 0.0
2017-Nov-11 03:31N 52°35' E 001°44'0 0.0
2017-Nov-11 03:01N 52°35' E 001°44'0 0.0
2017-Nov-11 02:31N 52°35' E 001°44'0 0.0
2017-Nov-11 02:01N 52°35' E 001°44'0 0.0
2017-Nov-11 01:31N 52°35' E 001°44'0 0.0
2017-Nov-11 01:01N 52°35' E 001°44'0 0.0
2017-Nov-11 00:31N 52°35' E 001°44'0 0.0
2017-Nov-11 00:00N 52°35' E 001°44'0 0.0
2017-Nov-10 23:30N 52°35' E 001°44'0 0.0
2017-Nov-10 23:00N 52°35' E 001°44'0 0.0
2017-Nov-10 22:30N 52°35' E 001°44'0 0.0
2017-Nov-10 22:01N 52°35' E 001°44'0 0.0
2017-Nov-10 21:31N 52°35' E 001°44'0 0.0
2017-Nov-10 21:00N 52°35' E 001°44'0 0.0
2017-Nov-10 20:31N 52°35' E 001°44'0 0.0
2017-Nov-10 20:01N 52°35' E 001°44'0 0.0
2017-Nov-10 19:30N 52°35' E 001°44'0 0.0
2017-Nov-10 19:00N 52°35' E 001°44'0 0.0
2017-Nov-10 18:30N 52°35' E 001°44'0 0.0
2017-Nov-10 18:00N 52°35' E 001°44'0 0.0
2017-Nov-10 17:31N 52°35' E 001°44'0 0.0
2017-Nov-10 17:01N 52°35' E 001°44'0 0.2
2017-Nov-10 16:30N 52°35' E 001°44'0 0.2
2017-Nov-10 16:00N 52°35' E 001°44'0 0.0
2017-Nov-10 15:30N 52°35' E 001°44'0 0.0
2017-Nov-10 15:00N 52°35' E 001°44'0 0.0
2017-Nov-10 14:30N 52°35' E 001°44'0 0.0
2017-Nov-10 14:00N 52°35' E 001°44'0 0.0
2017-Nov-10 13:30N 52°35' E 001°44'0 0.0
2017-Nov-10 13:00N 52°35' E 001°44'0 0.0
2017-Nov-10 12:30N 52°35' E 001°44'0 0.0
2017-Nov-10 12:00N 52°35' E 001°44'0 0.0
2017-Nov-10 11:30N 52°35' E 001°44'0 0.0
2017-Nov-10 11:00N 52°35' E 001°44'0 0.0
2017-Nov-10 10:30N 52°35' E 001°44'0 0.0
2017-Nov-10 10:00N 52°35' E 001°44'0 0.0
2017-Nov-10 09:30N 52°35' E 001°44'0 0.0
2017-Nov-10 09:00N 52°35' E 001°44'0 0.0
2017-Nov-10 08:30N 52°35' E 001°44'1 1.4
2017-Nov-10 08:00N 52°34' E 001°45'1 2.3
2017-Nov-10 07:31N 52°34' E 001°46'1 1.4
2017-Nov-10 07:00N 52°33' E 001°47'2 4.0
2017-Nov-10 06:30N 52°32' E 001°50'2 4.3
2017-Nov-10 05:59N 52°30' E 001°52'2 4.6
2017-Nov-10 05:30N 52°28' E 001°52'2 4.6
2017-Nov-10 05:00N 52°26' E 001°52'2 4.8
2017-Nov-10 04:30N 52°24' E 001°50'3 4.7
2017-Nov-10 03:58N 52°21' E 001°49'10 5.1
2017-Nov-10 02:01N 52°12' E 001°44'0 1.2
2017-Nov-10 02:00N 52°12' E 001°44'3 5.3
2017-Nov-10 01:30N 52°09' E 001°43'2 4.9
2017-Nov-10 01:00N 52°07' E 001°42'2 4.2
2017-Nov-10 00:30N 52°05' E 001°41'2 4.3
2017-Nov-10 00:00N 52°03' E 001°40'2 4.1
2017-Nov-09 23:30N 52°01' E 001°40'2 4.6
2017-Nov-09 23:00N 51°59' E 001°39'3 5.0
2017-Nov-09 22:30N 51°56' E 001°38'3 5.5
2017-Nov-09 22:00N 51°53' E 001°37'3 6.2
2017-Nov-09 21:30N 51°51' E 001°36'4 7.0
2017-Nov-09 21:00N 51°48' E 001°32'4 7.7
2017-Nov-09 20:30N 51°45' E 001°27'4 7.7
2017-Nov-09 20:00N 51°43' E 001°23'4 8.3
2017-Nov-09 19:30N 51°40' E 001°17'4 8.8
2017-Nov-09 19:00N 51°36' E 001°13'5 8.9
2017-Nov-09 18:29N 51°34' E 001°07'4 8.5
2017-Nov-09 17:58N 51°31' E 001°01'4 8.3
2017-Nov-09 17:30N 51°30' E 000°55'2 4.9
2017-Nov-09 17:00N 51°30' E 000°51'  

Dump ship's entire track history